createdAt,value
2019-04-23T00:00:56.749Z,48.61
2019-04-23T00:03:27.168Z,49.14
2019-04-23T00:08:39.586Z,48.72
2019-04-23T00:11:15.652Z,48.47
2019-04-23T00:13:45.498Z,49.05
2019-04-23T00:18:47.893Z,48.49
2019-04-23T00:21:20.686Z,48.81
2019-04-23T00:24:01.772Z,49.19
2019-04-23T00:26:36.635Z,48.58
2019-04-23T00:29:11.902Z,48.64
2019-04-23T00:31:40.829Z,48.79
2019-04-23T00:34:09.295Z,48.73
2019-04-23T00:36:44.285Z,48.87
2019-04-23T00:39:15.256Z,48.45
2019-04-23T00:41:50.877Z,48.38
2019-04-23T00:44:25.030Z,48.90
2019-04-23T00:46:55.720Z,48.62
2019-04-23T00:49:32.691Z,47.75
2019-04-23T00:52:07.520Z,48.05
2019-04-23T00:54:39.198Z,48.37
2019-04-23T00:57:21.796Z,48.14
2019-04-23T00:59:57.320Z,47.92
2019-04-23T01:02:18.322Z,47.99
2019-04-23T01:05:01.614Z,47.96
2019-04-23T01:07:29.583Z,47.82
2019-04-23T01:10:08.311Z,48.03
2019-04-23T01:12:38.263Z,48.50
2019-04-23T01:15:15.721Z,48.33
2019-04-23T01:17:49.123Z,48.46
2019-04-23T01:20:14.826Z,48.08
2019-04-23T01:22:33.489Z,48.49
2019-04-23T01:25:22.995Z,48.49
2019-04-23T01:28:23.153Z,47.97
2019-04-23T01:30:57.424Z,48.11
2019-04-23T01:33:34.079Z,48.01
2019-04-23T01:36:23.340Z,48.47
2019-04-23T01:38:41.845Z,48.03
2019-04-23T01:41:07.781Z,48.13
2019-04-23T01:43:41.254Z,47.62
2019-04-23T01:46:12.890Z,48.18
2019-04-23T01:48:52.141Z,47.81
2019-04-23T01:51:31.102Z,48.02
2019-04-23T01:53:57.146Z,47.72
2019-04-23T01:56:31.565Z,47.91
2019-04-23T01:59:06.114Z,47.72
2019-04-23T02:01:41.029Z,47.58
2019-04-23T02:04:16.987Z,47.87
2019-04-23T02:06:45.853Z,48.01
2019-04-23T02:09:16.701Z,47.41
2019-04-23T02:11:55.162Z,47.21
2019-04-23T02:14:28.097Z,47.57
2019-04-23T02:17:08.048Z,47.31
2019-04-23T02:19:42.360Z,47.07
2019-04-23T02:22:33.279Z,47.64
2019-04-23T02:25:01.922Z,48.17
2019-04-23T02:27:38.870Z,47.47
2019-04-23T02:30:26.649Z,47.96
2019-04-23T02:35:32.745Z,48.15
2019-04-23T02:38:03.459Z,47.54
2019-04-23T02:40:45.349Z,47.84
2019-04-23T02:43:08.459Z,48.14
2019-04-23T02:45:39.251Z,47.84
2019-04-23T02:53:30.704Z,47.69
2019-04-23T03:03:46.341Z,48.21
2019-04-23T03:06:10.184Z,48.59
2019-04-23T03:08:45.653Z,48.83
2019-04-23T03:11:15.518Z,48.61
2019-04-23T03:14:00.348Z,48.56
2019-04-23T03:21:52.244Z,49.02
2019-04-23T03:24:31.135Z,49.08
2019-04-23T03:27:09.804Z,49.02
2019-04-23T03:42:24.050Z,48.96
2019-04-23T03:45:00.684Z,49.04
2019-04-23T03:55:11.921Z,49.13
2019-04-23T03:57:54.113Z,48.89
2019-04-23T04:03:02.122Z,48.88
2019-04-23T04:05:31.162Z,48.97
2019-04-23T04:10:35.685Z,48.95
2019-04-23T04:13:22.793Z,48.84
2019-04-23T04:20:53.737Z,49.00
2019-04-23T04:28:28.949Z,48.37
2019-04-23T04:30:53.797Z,49.01
2019-04-23T04:33:55.445Z,48.99
2019-04-23T04:36:14.077Z,48.47
2019-04-23T04:38:54.432Z,48.40
2019-04-23T04:41:14.273Z,49.12
2019-04-23T04:44:17.572Z,48.69
2019-04-23T04:46:35.094Z,48.43
2019-04-23T04:48:58.789Z,48.78
2019-04-23T04:51:37.667Z,48.68
2019-04-23T04:54:09.612Z,48.50
2019-04-23T04:56:37.978Z,48.49
2019-04-23T04:59:11.850Z,48.18
2019-04-23T05:01:39.586Z,47.73
2019-04-23T05:04:23.406Z,48.16
2019-04-23T05:07:02.193Z,48.06
2019-04-23T05:09:29.309Z,47.51
2019-04-23T05:12:01.733Z,47.50
2019-04-23T05:14:33.419Z,47.41
2019-04-23T05:17:13.512Z,47.33
2019-04-23T05:19:42.627Z,47.74
2019-04-23T05:22:16.117Z,47.27
2019-04-23T05:27:17.552Z,47.17
2019-04-23T05:29:55.948Z,47.85
2019-04-23T05:32:26.204Z,46.85
2019-04-23T05:34:57.632Z,46.67
2019-04-23T05:37:42.247Z,46.94
2019-04-23T05:40:14.522Z,46.53
2019-04-23T05:42:43.062Z,45.99
2019-04-23T05:45:29.787Z,46.19
2019-04-23T05:47:53.436Z,46.13
2019-04-23T05:50:29.169Z,45.99
2019-04-23T05:52:59.051Z,45.56
2019-04-23T05:55:32.901Z,45.02
2019-04-23T05:58:05.183Z,45.59
2019-04-23T06:00:51.146Z,45.81
2019-04-23T06:03:16.012Z,45.06
2019-04-23T06:05:58.256Z,45.68
2019-04-23T06:08:25.279Z,45.17
2019-04-23T06:11:01.993Z,44.91
2019-04-23T06:13:36.302Z,44.69
2019-04-23T06:16:05.056Z,45.22
2019-04-23T06:18:40.721Z,44.81
2019-04-23T06:21:10.087Z,44.69
2019-04-23T06:23:49.605Z,44.70
2019-04-23T06:28:56.126Z,44.94
2019-04-23T06:34:03.890Z,44.95
2019-04-23T06:36:32.675Z,44.85
2019-04-23T06:39:10.283Z,44.67
2019-04-23T06:41:46.563Z,44.76
2019-04-23T06:44:19.556Z,44.49
2019-04-23T06:49:28.445Z,45.21
2019-04-23T06:54:37.868Z,44.23
2019-04-23T06:59:35.751Z,44.72
2019-04-23T07:02:20.663Z,44.79
2019-04-23T07:09:56.213Z,44.46
2019-04-23T07:15:30.664Z,44.28
2019-04-23T07:17:30.749Z,44.55
2019-04-23T07:20:06.838Z,44.39
2019-04-23T07:22:43.240Z,44.75
2019-04-23T07:25:18.939Z,44.87
2019-04-23T07:27:49.003Z,44.39
2019-04-23T07:30:23.714Z,44.69
2019-04-23T07:32:56.633Z,44.43
2019-04-23T07:35:31.647Z,44.53
2019-04-23T07:38:32.748Z,44.85
2019-04-23T07:40:54.149Z,45.00
2019-04-23T07:43:33.543Z,44.68
2019-04-23T07:46:16.868Z,44.47
2019-04-23T07:48:43.967Z,44.37
2019-04-23T07:51:19.826Z,44.32
2019-04-23T07:53:52.113Z,44.42
2019-04-23T07:56:21.388Z,44.37
2019-04-23T07:58:57.038Z,44.67
2019-04-23T08:01:32.019Z,44.09
2019-04-23T08:04:04.565Z,43.79
2019-04-23T08:06:41.295Z,43.71
2019-04-23T08:09:22.366Z,43.75
2019-04-23T08:12:02.657Z,43.87
2019-04-23T08:14:13.572Z,43.98
2019-04-23T08:16:53.035Z,43.81
2019-04-23T08:19:38.518Z,43.93
2019-04-23T08:22:12.785Z,43.37
2019-04-23T08:24:52.233Z,43.44
2019-04-23T08:27:24.081Z,43.60
2019-04-23T08:29:58.475Z,42.86
2019-04-23T08:32:38.557Z,42.77
2019-04-23T08:37:54.314Z,42.23
2019-04-23T08:40:16.090Z,42.56
2019-04-23T08:45:28.031Z,42.15
2019-04-23T08:50:47.839Z,41.98
2019-04-23T08:53:30.877Z,41.93
2019-04-23T09:01:05.868Z,41.46
2019-04-23T09:03:34.416Z,41.45
2019-04-23T09:06:14.051Z,40.43
2019-04-23T09:11:30.105Z,40.54
2019-04-23T09:16:25.412Z,40.63
2019-04-23T09:19:04.615Z,40.27
2019-04-23T09:21:30.263Z,39.86
2019-04-23T09:24:03.721Z,40.83
2019-04-23T09:26:40.605Z,40.47
2019-04-23T09:29:17.231Z,40.26
2019-04-23T09:34:43.303Z,41.37
2019-04-23T09:37:28.346Z,39.86
2019-04-23T09:39:59.116Z,39.72
2019-04-23T09:42:54.566Z,39.13
2019-04-23T09:45:29.649Z,39.94
2019-04-23T09:48:01.868Z,39.78
2019-04-23T09:53:24.124Z,39.54
2019-04-23T09:55:51.456Z,39.20
2019-04-23T10:00:56.181Z,39.15
2019-04-23T10:03:23.847Z,39.11
2019-04-23T10:05:50.565Z,39.64
2019-04-23T10:08:21.148Z,39.67
2019-04-23T10:10:47.251Z,39.29
2019-04-23T10:13:19.941Z,40.09
2019-04-23T10:15:53.590Z,39.03
2019-04-23T10:18:26.845Z,39.47
2019-04-23T10:20:59.330Z,38.72
2019-04-23T10:23:31.574Z,38.66
2019-04-23T10:26:03.937Z,38.42
2019-04-23T10:28:38.127Z,38.09
2019-04-23T10:31:10.220Z,38.86
2019-04-23T10:33:42.228Z,38.51
2019-04-23T10:36:19.923Z,38.42
2019-04-23T10:38:59.774Z,38.89
2019-04-23T10:41:24.224Z,38.90
2019-04-23T10:43:58.681Z,39.24
2019-04-23T10:46:53.751Z,38.83
2019-04-23T10:49:47.695Z,38.56
2019-04-23T10:52:24.794Z,38.78
2019-04-23T10:57:17.314Z,38.59
2019-04-23T11:00:01.538Z,38.93
2019-04-23T11:05:26.094Z,38.00
2019-04-23T11:10:08.657Z,38.17
2019-04-23T11:15:36.217Z,38.26
2019-04-23T11:17:47.720Z,37.57
2019-04-23T11:20:45.413Z,37.65
2019-04-23T11:23:17.523Z,37.77
2019-04-23T11:25:36.088Z,37.87
2019-04-23T11:28:13.585Z,38.31
2019-04-23T11:30:51.503Z,38.99
2019-04-23T11:38:48.649Z,37.91
2019-04-23T11:41:17.293Z,37.19
2019-04-23T11:43:38.066Z,36.73
2019-04-23T11:46:32.544Z,36.64
2019-04-23T11:49:10.322Z,36.23
2019-04-23T11:54:01.568Z,35.81
2019-04-23T11:57:05.481Z,35.80
2019-04-23T11:59:06.916Z,35.68
2019-04-23T12:02:07.483Z,35.54
2019-04-23T12:04:38.572Z,35.11
2019-04-23T12:07:11.042Z,35.48
2019-04-23T12:09:58.190Z,35.04
2019-04-23T12:12:25.075Z,34.48
2019-04-23T12:15:03.642Z,33.94
2019-04-23T12:17:43.809Z,34.00
2019-04-23T12:20:12.279Z,33.90
2019-04-23T12:22:54.014Z,34.07
2019-04-23T12:27:42.040Z,33.24
2019-04-23T12:30:36.546Z,32.28
2019-04-23T12:35:43.743Z,32.39
2019-04-23T12:40:44.230Z,31.60
2019-04-23T12:45:47.337Z,31.82
2019-04-23T12:51:21.309Z,31.99
2019-04-23T12:53:39.837Z,32.37
2019-04-23T12:56:10.608Z,32.28
2019-04-23T12:58:33.927Z,32.27
2019-04-23T13:01:14.124Z,32.53
2019-04-23T13:03:45.612Z,32.24
2019-04-23T13:06:20.640Z,32.58
2019-04-23T13:08:56.917Z,32.61
2019-04-23T13:11:34.870Z,33.08
2019-04-23T13:19:16.811Z,33.24
2019-04-23T13:22:04.369Z,33.68
2019-04-23T13:24:36.058Z,34.06
2019-04-23T13:27:10.668Z,33.99
2019-04-23T13:32:24.280Z,34.00
2019-04-23T13:34:58.835Z,33.69
2019-04-23T13:37:31.537Z,33.70
2019-04-23T13:40:16.985Z,33.34
2019-04-23T13:42:42.771Z,33.60
2019-04-23T13:45:18.388Z,33.02
2019-04-23T13:47:46.928Z,33.00
2019-04-23T13:50:17.544Z,32.76
2019-04-23T13:55:34.649Z,31.91
2019-04-23T14:00:36.907Z,31.79
2019-04-23T14:02:54.745Z,31.44
2019-04-23T14:05:41.274Z,31.44
2019-04-23T14:10:46.521Z,29.92
2019-04-23T14:13:37.324Z,29.55
2019-04-23T14:16:11.749Z,29.29
2019-04-23T14:21:08.701Z,29.03
2019-04-23T14:23:54.095Z,28.41
2019-04-23T14:26:18.687Z,27.75
2019-04-23T14:28:43.627Z,27.52
2019-04-23T14:34:03.558Z,26.69
2019-04-23T14:39:04.247Z,26.47
2019-04-23T14:41:26.668Z,26.57
2019-04-23T14:44:12.955Z,26.18
2019-04-23T14:46:55.839Z,26.26
2019-04-23T14:49:54.042Z,26.42
2019-04-23T14:52:18.884Z,25.93
2019-04-23T14:55:25.286Z,25.69
2019-04-23T14:57:24.818Z,25.98
2019-04-23T14:59:57.390Z,25.34
2019-04-23T15:05:04.177Z,25.59
2019-04-23T15:07:38.020Z,25.20
2019-04-23T15:10:18.577Z,25.56
2019-04-23T15:12:47.845Z,26.11
2019-04-23T15:17:49.763Z,26.77
2019-04-23T15:20:32.486Z,27.18
2019-04-23T15:23:33.662Z,27.36
2019-04-23T15:26:15.744Z,27.93
2019-04-23T15:28:09.033Z,28.12
2019-04-23T15:30:57.089Z,28.37
